createdAt,value
2023-01-23T00:00:42.906Z,6.50
2023-01-23T00:03:16.726Z,6.57
2023-01-23T00:05:59.227Z,6.77
2023-01-23T00:08:37.028Z,7.00
2023-01-23T00:11:24.444Z,6.97
2023-01-23T00:14:00.422Z,7.40
2023-01-23T00:16:37.448Z,7.43
2023-01-23T00:19:15.451Z,6.80
2023-01-23T00:21:44.711Z,7.40
2023-01-23T00:24:22.465Z,6.37
2023-01-23T00:27:02.926Z,6.20
2023-01-23T00:29:42.556Z,5.27
2023-01-23T00:32:19.165Z,6.10
2023-01-23T00:34:50.423Z,7.07
2023-01-23T00:37:18.922Z,6.23
2023-01-23T00:39:58.691Z,6.80
2023-01-23T00:42:26.911Z,6.80
2023-01-23T00:44:55.450Z,7.03
2023-01-23T00:47:30.461Z,6.77
2023-01-23T00:50:00.779Z,7.00
2023-01-23T00:52:35.548Z,6.17
2023-01-23T00:55:20.668Z,6.60
2023-01-23T00:57:55.332Z,5.93
2023-01-23T01:00:23.702Z,6.07
2023-01-23T01:02:59.463Z,6.10
2023-01-23T01:05:36.295Z,6.07
2023-01-23T01:08:07.205Z,6.53
2023-01-23T01:10:37.211Z,6.23
2023-01-23T01:13:05.740Z,7.27
2023-01-23T01:15:34.340Z,7.33
2023-01-23T01:18:04.163Z,6.50
2023-01-23T01:20:35.525Z,7.07
2023-01-23T01:23:04.217Z,6.47
2023-01-23T01:25:34.025Z,6.47
2023-01-23T01:28:04.999Z,6.47
2023-01-23T01:30:38.176Z,6.10
2023-01-23T01:33:11.130Z,6.50
2023-01-23T01:35:42.633Z,7.33
2023-01-23T01:38:11.407Z,7.27
2023-01-23T01:40:47.843Z,6.83
2023-01-23T01:43:27.325Z,6.23
2023-01-23T01:46:23.838Z,7.40
2023-01-23T01:49:09.550Z,6.53
2023-01-23T01:51:57.233Z,6.87
2023-01-23T01:54:33.593Z,7.57
2023-01-23T01:57:16.773Z,7.10
2023-01-23T01:59:52.998Z,7.77
2023-01-23T02:02:28.726Z,7.43
2023-01-23T02:05:14.550Z,7.53
2023-01-23T02:07:48.351Z,7.83
2023-01-23T02:10:23.049Z,8.47
2023-01-23T02:13:21.109Z,7.03
2023-01-23T02:15:51.681Z,7.70
2023-01-23T02:18:20.823Z,7.17
2023-01-23T02:20:54.296Z,6.97
2023-01-23T02:23:43.655Z,7.03
2023-01-23T02:26:17.443Z,6.70
2023-01-23T02:28:53.513Z,6.90
2023-01-23T02:31:29.719Z,6.93
2023-01-23T02:34:13.156Z,7.50
2023-01-23T02:36:50.594Z,7.23
2023-01-23T02:39:21.296Z,6.93
2023-01-23T02:41:58.300Z,6.90
2023-01-23T02:44:31.698Z,6.17
2023-01-23T02:47:04.468Z,6.53
2023-01-23T02:49:42.905Z,6.37
2023-01-23T02:52:11.330Z,5.80
2023-01-23T02:54:40.919Z,6.30
2023-01-23T02:57:10.884Z,6.03
2023-01-23T02:59:56.384Z,5.73
2023-01-23T03:02:24.802Z,6.50
2023-01-23T03:04:53.188Z,5.37
2023-01-23T03:07:21.378Z,5.63
2023-01-23T03:09:50.135Z,6.00
2023-01-23T03:12:20.065Z,5.40
2023-01-23T03:14:48.809Z,5.53
2023-01-23T03:17:17.188Z,5.40
2023-01-23T03:19:46.543Z,5.83
2023-01-23T03:22:14.923Z,5.40
2023-01-23T03:24:45.284Z,4.50
2023-01-23T03:27:13.667Z,4.67
2023-01-23T03:30:01.276Z,5.93
2023-01-23T03:32:31.680Z,4.77
2023-01-23T03:35:01.739Z,5.47
2023-01-23T03:37:30.948Z,4.87
2023-01-23T03:40:24.261Z,5.17
2023-01-23T03:42:52.448Z,5.03
2023-01-23T03:45:23.893Z,4.67
2023-01-23T03:47:52.454Z,5.67
2023-01-23T03:50:21.115Z,5.70
2023-01-23T03:52:55.687Z,5.37
2023-01-23T03:55:26.452Z,4.77
2023-01-23T03:58:11.129Z,5.20
2023-01-23T04:00:53.536Z,5.87
2023-01-23T04:03:21.892Z,4.90
2023-01-23T04:05:50.259Z,5.63
2023-01-23T04:08:37.863Z,5.70
2023-01-23T04:11:08.468Z,5.80
2023-01-23T04:13:36.792Z,6.03
2023-01-23T04:16:08.202Z,6.37
2023-01-23T04:18:40.603Z,4.97
2023-01-23T04:21:14.868Z,5.00
2023-01-23T04:23:43.344Z,6.30
2023-01-23T04:26:14.247Z,5.13
2023-01-23T04:28:42.617Z,4.53
2023-01-23T04:31:14.599Z,5.03
2023-01-23T04:33:43.049Z,6.37
2023-01-23T04:36:13.936Z,5.10
2023-01-23T04:38:42.148Z,5.23
2023-01-23T04:41:23.310Z,5.60
2023-01-23T04:43:51.777Z,6.07
2023-01-23T04:46:21.913Z,4.93
2023-01-23T04:48:50.407Z,5.10
2023-01-23T04:51:33.783Z,4.80
2023-01-23T04:54:03.197Z,4.93
2023-01-23T04:56:37.633Z,5.43
2023-01-23T04:59:18.126Z,5.03
2023-01-23T05:01:52.591Z,5.97
2023-01-23T05:04:21.141Z,5.53
2023-01-23T05:06:49.679Z,5.73
2023-01-23T05:09:18.036Z,6.07
2023-01-23T05:11:46.737Z,5.23
2023-01-23T05:14:17.876Z,6.13
2023-01-23T05:16:48.387Z,5.07
2023-01-23T05:19:18.140Z,4.80
2023-01-23T05:21:46.684Z,5.33
2023-01-23T05:24:15.246Z,5.40
2023-01-23T05:26:44.179Z,4.83
2023-01-23T05:29:12.833Z,7.20
2023-01-23T05:31:41.281Z,4.80
2023-01-23T05:34:09.694Z,5.47
2023-01-23T05:36:39.302Z,4.93
2023-01-23T05:39:07.774Z,5.53
2023-01-23T05:41:36.076Z,5.10
2023-01-23T05:44:04.438Z,4.30
2023-01-23T05:46:40.690Z,4.90
2023-01-23T05:49:34.436Z,5.53
2023-01-23T05:52:04.296Z,5.07
2023-01-23T05:54:32.617Z,4.70
2023-01-23T05:57:00.737Z,5.03
2023-01-23T05:59:28.809Z,5.13
2023-01-23T06:01:57.274Z,4.40
2023-01-23T06:04:26.245Z,6.50
2023-01-23T06:06:54.787Z,5.40
2023-01-23T06:09:24.511Z,5.57
2023-01-23T06:11:52.851Z,4.87
2023-01-23T06:14:21.831Z,4.70
2023-01-23T06:16:50.416Z,4.53
2023-01-23T06:19:18.960Z,5.00
2023-01-23T06:21:59.640Z,4.10
2023-01-23T06:24:29.227Z,4.90
2023-01-23T06:26:57.578Z,4.97
2023-01-23T06:29:44.599Z,5.00
2023-01-23T06:32:12.873Z,4.50
2023-01-23T06:34:41.482Z,4.90
2023-01-23T06:37:09.865Z,3.97
2023-01-23T06:39:39.412Z,4.93
2023-01-23T06:42:10.337Z,4.67
2023-01-23T06:44:39.079Z,4.77
2023-01-23T06:47:07.482Z,5.07
2023-01-23T06:49:40.775Z,5.07
2023-01-23T06:52:09.139Z,5.07
2023-01-23T06:54:38.881Z,5.30
2023-01-23T06:57:06.996Z,4.40
2023-01-23T06:59:35.713Z,4.90
2023-01-23T07:02:05.225Z,5.43
2023-01-23T07:04:34.338Z,5.20
2023-01-23T07:07:06.708Z,4.90
2023-01-23T07:09:34.927Z,5.37
2023-01-23T07:12:04.755Z,4.87
2023-01-23T07:14:33.186Z,4.87
2023-01-23T07:17:01.630Z,4.93
2023-01-23T07:19:29.882Z,5.00
2023-01-23T07:21:58.226Z,4.30
2023-01-23T07:24:31.803Z,5.57
2023-01-23T07:27:01.156Z,4.93
2023-01-23T07:29:46.860Z,5.03
2023-01-23T07:32:15.128Z,5.43
2023-01-23T07:34:44.526Z,5.93
2023-01-23T07:37:13.016Z,5.60
2023-01-23T07:39:41.287Z,6.13
2023-01-23T07:42:09.848Z,6.60
2023-01-23T07:44:38.222Z,5.57
2023-01-23T07:47:08.191Z,5.60
2023-01-23T07:49:36.590Z,5.57
2023-01-23T07:52:05.742Z,5.47
2023-01-23T07:54:34.296Z,5.53
2023-01-23T07:57:02.694Z,4.87
2023-01-23T07:59:31.036Z,5.17
2023-01-23T08:01:59.297Z,4.67
2023-01-23T08:04:29.200Z,5.03
2023-01-23T08:06:57.427Z,6.83
2023-01-23T08:09:25.737Z,6.43
2023-01-23T08:11:56.076Z,5.33
2023-01-23T08:14:25.665Z,6.83
2023-01-23T08:16:55.681Z,6.00
2023-01-23T08:19:25.422Z,6.00
2023-01-23T08:21:55.495Z,5.53
2023-01-23T08:24:24.004Z,5.47
2023-01-23T08:27:01.614Z,5.93
2023-01-23T08:29:30.131Z,4.97
2023-01-23T08:31:58.768Z,5.40
2023-01-23T08:34:27.422Z,5.07
2023-01-23T08:36:57.738Z,5.50
2023-01-23T08:39:26.476Z,4.80
2023-01-23T08:41:54.781Z,5.07
2023-01-23T08:44:23.223Z,5.40
2023-01-23T08:46:51.658Z,5.27
2023-01-23T08:49:21.688Z,5.23
2023-01-23T08:51:50.153Z,5.67
2023-01-23T08:54:22.874Z,6.33
2023-01-23T08:56:53.493Z,4.97
2023-01-23T08:59:25.935Z,5.33
2023-01-23T09:02:31.623Z,5.60
2023-01-23T09:05:00.470Z,5.47
2023-01-23T09:07:28.890Z,6.13
2023-01-23T09:10:03.891Z,5.73
2023-01-23T09:12:38.127Z,5.70
2023-01-23T09:15:07.829Z,5.97
2023-01-23T09:17:38.112Z,5.77
2023-01-23T09:20:26.912Z,5.53
2023-01-23T09:22:56.588Z,6.33
2023-01-23T09:25:26.621Z,5.70
2023-01-23T09:27:55.026Z,7.73
2023-01-23T09:30:23.685Z,5.23
2023-01-23T09:32:55.785Z,6.27
2023-01-23T09:35:24.643Z,6.03
2023-01-23T09:38:01.760Z,8.13
2023-01-23T09:40:33.511Z,6.93
2023-01-23T09:43:06.476Z,6.80
2023-01-23T09:45:38.188Z,7.13
2023-01-23T09:48:20.785Z,5.97
2023-01-23T09:50:57.867Z,8.43
2023-01-23T09:53:31.255Z,7.87
2023-01-23T09:56:04.865Z,7.13
2023-01-23T09:58:40.691Z,7.17
2023-01-23T10:01:13.492Z,6.60
2023-01-23T10:03:43.541Z,6.50
2023-01-23T10:06:24.000Z,6.03
2023-01-23T10:09:14.506Z,5.83
2023-01-23T10:11:57.306Z,5.83
2023-01-23T10:14:48.098Z,6.13
2023-01-23T10:17:24.040Z,6.93
2023-01-23T10:20:25.393Z,7.27
2023-01-23T10:23:06.250Z,6.67
2023-01-23T10:25:43.435Z,5.80
2023-01-23T10:28:27.413Z,7.60
2023-01-23T10:31:00.863Z,5.57
2023-01-23T10:33:48.826Z,6.73
2023-01-23T10:36:47.670Z,6.60
2023-01-23T10:39:27.958Z,6.17
2023-01-23T10:42:02.396Z,5.57
2023-01-23T10:44:33.698Z,7.30
2023-01-23T10:47:05.856Z,5.63
2023-01-23T10:49:36.688Z,6.20
2023-01-23T10:52:07.022Z,6.73
2023-01-23T10:54:47.178Z,6.53
2023-01-23T10:57:24.710Z,6.30
2023-01-23T10:59:57.719Z,6.30
2023-01-23T11:02:30.277Z,5.83
2023-01-23T11:04:58.851Z,6.63
2023-01-23T11:07:29.198Z,5.80
2023-01-23T11:09:59.804Z,6.10
2023-01-23T11:12:29.375Z,6.83
2023-01-23T11:15:15.316Z,5.03
2023-01-23T11:17:45.137Z,6.97
2023-01-23T11:20:25.976Z,7.23
2023-01-23T11:23:06.056Z,6.07
2023-01-23T11:25:37.806Z,6.50
2023-01-23T11:28:29.855Z,5.73
2023-01-23T11:31:13.711Z,6.20
2023-01-23T11:33:53.429Z,6.37
2023-01-23T11:36:42.627Z,5.27
2023-01-23T11:39:19.988Z,7.27
2023-01-23T11:41:52.805Z,6.60
2023-01-23T11:44:24.547Z,6.37
2023-01-23T11:47:41.072Z,6.10
2023-01-23T11:50:30.367Z,5.77
2023-01-23T11:53:06.948Z,5.80
2023-01-23T11:55:53.283Z,5.27
2023-01-23T11:58:49.408Z,5.93
2023-01-23T12:01:31.943Z,6.63
2023-01-23T12:04:22.459Z,6.47
2023-01-23T12:07:16.849Z,5.97
2023-01-23T12:09:53.632Z,6.80
2023-01-23T12:12:33.746Z,5.17
2023-01-23T12:15:13.281Z,5.60
2023-01-23T12:17:49.728Z,6.13
2023-01-23T12:20:34.385Z,6.60
2023-01-23T12:23:37.644Z,6.20
2023-01-23T12:26:15.378Z,6.73
2023-01-23T12:29:01.658Z,6.47
2023-01-23T12:31:45.443Z,6.77
2023-01-23T12:34:27.290Z,6.97
2023-01-23T12:37:29.055Z,6.57
2023-01-23T12:40:09.914Z,7.57
2023-01-23T12:42:43.578Z,7.30
2023-01-23T12:45:22.028Z,7.13
2023-01-23T12:48:00.209Z,7.07
2023-01-23T12:50:40.664Z,7.13
2023-01-23T12:53:13.723Z,6.70
2023-01-23T12:55:52.080Z,7.50
2023-01-23T12:58:21.886Z,7.60
2023-01-23T13:01:21.624Z,8.57
2023-01-23T13:04:06.669Z,7.63
2023-01-23T13:06:51.818Z,8.53
2023-01-23T13:09:46.352Z,6.40
2023-01-23T13:12:23.403Z,7.63
2023-01-23T13:15:13.376Z,7.30
2023-01-23T13:17:46.335Z,8.23
2023-01-23T13:20:43.286Z,7.50
2023-01-23T13:23:37.972Z,7.93
2023-01-23T13:26:34.612Z,7.40
2023-01-23T13:29:04.510Z,7.97
2023-01-23T13:31:40.416Z,6.93
2023-01-23T13:34:44.438Z,8.10
2023-01-23T13:37:45.941Z,7.20
2023-01-23T13:40:20.503Z,6.73
2023-01-23T13:42:52.983Z,8.00
2023-01-23T13:45:32.534Z,8.97
2023-01-23T14:28:56.053Z,8.27
2023-01-23T14:31:28.851Z,6.67
2023-01-23T14:34:18.828Z,7.67
2023-01-23T14:36:52.968Z,6.90
2023-01-23T14:39:24.953Z,7.57
2023-01-23T14:42:06.534Z,12.07
2023-01-23T14:44:41.486Z,7.97
2023-01-23T14:47:17.755Z,7.20
2023-01-23T14:49:55.222Z,6.70
2023-01-23T14:52:29.015Z,7.10
2023-01-23T14:55:01.142Z,6.90
2023-01-23T14:57:37.419Z,7.53
2023-01-23T15:00:17.801Z,7.83
2023-01-23T15:02:51.086Z,6.33
2023-01-23T15:05:23.822Z,7.40
2023-01-23T15:07:56.037Z,6.90
2023-01-23T15:10:35.656Z,8.70
2023-01-23T15:13:21.041Z,6.73
2023-01-23T15:15:57.052Z,6.47
2023-01-23T15:19:10.506Z,6.73
2023-01-23T15:22:11.487Z,7.17
2023-01-23T15:25:08.342Z,6.63
2023-01-23T15:28:04.656Z,6.20
2023-01-23T15:34:25.442Z,6.30
2023-01-23T15:36:58.410Z,6.80
2023-01-23T15:39:32.682Z,6.07
2023-01-23T15:42:41.559Z,5.83
2023-01-23T15:46:11.647Z,5.93
2023-01-23T15:48:45.788Z,5.63
2023-01-23T15:51:21.639Z,6.43
2023-01-23T15:53:50.137Z,5.23
2023-01-23T15:56:29.040Z,5.83
2023-01-23T15:59:06.535Z,6.37
2023-01-23T16:01:35.663Z,6.20
2023-01-23T16:04:19.437Z,5.13
2023-01-23T16:06:51.571Z,5.90
2023-01-23T16:09:27.629Z,5.43
2023-01-23T16:12:04.605Z,6.23
2023-01-23T16:14:33.094Z,6.23
2023-01-23T16:17:11.675Z,6.77
2023-01-23T16:19:54.503Z,6.40
2023-01-23T16:22:29.567Z,5.30
2023-01-23T16:24:59.293Z,7.07
2023-01-23T16:27:28.535Z,5.40
2023-01-23T16:29:58.084Z,6.77
2023-01-23T16:32:26.462Z,6.17
2023-01-23T16:34:56.937Z,6.67
2023-01-23T16:37:26.774Z,6.53
2023-01-23T16:39:56.723Z,6.53
2023-01-23T16:42:26.609Z,7.03
2023-01-23T16:45:01.196Z,6.50
2023-01-23T16:47:33.669Z,6.10
2023-01-23T16:50:21.258Z,5.60
2023-01-23T16:52:56.301Z,6.77
2023-01-23T16:55:35.811Z,6.40
2023-01-23T16:58:06.878Z,7.10
2023-01-23T17:00:37.886Z,6.40
2023-01-23T17:03:10.097Z,6.67
2023-01-23T17:05:44.287Z,6.07
2023-01-23T17:08:31.349Z,7.17
2023-01-23T17:11:06.855Z,7.00
2023-01-23T17:13:38.232Z,7.53
2023-01-23T17:16:26.572Z,7.80
2023-01-23T17:19:00.827Z,7.17
2023-01-23T17:21:35.186Z,6.93
2023-01-23T17:24:08.260Z,8.73
2023-01-23T17:26:36.855Z,6.60
2023-01-23T17:29:11.565Z,7.50
2023-01-23T17:31:41.219Z,8.17
2023-01-23T17:34:22.325Z,7.23
2023-01-23T17:36:52.085Z,8.80
2023-01-23T17:39:21.724Z,6.80
2023-01-23T17:41:51.447Z,7.77
2023-01-23T17:44:22.051Z,6.77
2023-01-23T17:46:54.907Z,7.87
2023-01-23T17:49:29.992Z,8.10
2023-01-23T17:52:02.038Z,7.20
2023-01-23T17:54:40.251Z,7.07
2023-01-23T18:05:06.216Z,7.97
2023-01-23T18:07:53.677Z,8.07
2023-01-23T18:10:24.599Z,6.73
2023-01-23T18:13:03.878Z,8.40
2023-01-23T18:15:38.421Z,8.80
2023-01-23T18:18:19.239Z,7.50
2023-01-23T18:20:54.465Z,7.67
2023-01-23T18:23:24.066Z,7.40
2023-01-23T18:26:04.769Z,7.47
2023-01-23T18:28:42.224Z,7.53
2023-01-23T18:31:24.036Z,7.53
2023-01-23T18:34:05.118Z,6.37
2023-01-23T18:36:44.691Z,6.97
2023-01-23T18:40:00.580Z,7.23
2023-01-23T18:42:36.122Z,7.47
2023-01-23T18:45:08.103Z,7.20
2023-01-23T18:47:36.911Z,6.77
2023-01-23T18:50:09.832Z,5.93
2023-01-23T18:52:51.920Z,7.70
2023-01-23T18:55:28.180Z,10.07
2023-01-23T18:58:13.273Z,7.60
2023-01-23T19:00:48.780Z,8.90
2023-01-23T19:03:18.436Z,5.70
2023-01-23T19:05:47.276Z,7.53
2023-01-23T19:08:30.756Z,7.13
2023-01-23T19:11:09.628Z,6.77
2023-01-23T19:13:46.184Z,6.53
2023-01-23T19:16:18.558Z,6.33
2023-01-23T19:18:48.756Z,5.60
2023-01-23T19:21:23.595Z,6.13
2023-01-23T19:24:01.885Z,5.53
2023-01-23T19:26:32.120Z,4.97
2023-01-23T19:29:08.344Z,6.33
2023-01-23T19:31:47.521Z,6.47
2023-01-23T19:34:23.918Z,6.57
2023-01-23T19:36:52.511Z,6.03
2023-01-23T19:39:22.570Z,5.40
2023-01-23T19:41:53.581Z,6.63
2023-01-23T19:44:24.965Z,5.50
2023-01-23T19:46:54.179Z,6.60
2023-01-23T19:49:22.540Z,5.60
2023-01-23T19:51:51.943Z,7.47
2023-01-23T19:54:24.175Z,7.30
2023-01-23T19:56:52.704Z,6.53
2023-01-23T19:59:21.659Z,5.73
2023-01-23T20:01:53.504Z,6.10
2023-01-23T20:04:24.420Z,7.30
2023-01-23T20:06:56.036Z,6.40
2023-01-23T20:09:25.836Z,6.47
2023-01-23T20:11:54.030Z,6.67
2023-01-23T20:14:24.361Z,7.47
2023-01-23T20:16:53.127Z,7.50
2023-01-23T20:19:22.512Z,6.53
2023-01-23T20:21:51.234Z,6.60
2023-01-23T20:24:20.045Z,6.83
2023-01-23T20:26:50.498Z,8.00
2023-01-23T20:29:21.735Z,6.87
2023-01-23T20:31:55.039Z,6.37
2023-01-23T20:34:24.340Z,6.77
2023-01-23T20:36:52.779Z,6.70
2023-01-23T20:39:21.037Z,7.60
2023-01-23T20:41:51.308Z,6.83
2023-01-23T20:44:19.446Z,7.63
2023-01-23T20:46:47.447Z,8.20
2023-01-23T20:49:15.659Z,8.23
2023-01-23T20:51:43.750Z,7.53
2023-01-23T20:54:11.878Z,7.60
2023-01-23T20:56:40.130Z,7.03
2023-01-23T20:59:19.158Z,7.03
2023-01-23T21:02:05.028Z,6.00
2023-01-23T21:04:34.807Z,7.30
2023-01-23T21:07:03.477Z,7.37
2023-01-23T21:09:31.802Z,7.03
2023-01-23T21:12:00.495Z,6.47
2023-01-23T21:14:30.801Z,7.33
2023-01-23T21:16:59.199Z,7.40
2023-01-23T21:19:30.121Z,6.90
2023-01-23T21:21:58.482Z,7.23
2023-01-23T21:24:27.328Z,7.20
2023-01-23T21:26:55.524Z,6.43
2023-01-23T21:29:23.587Z,7.73
2023-01-23T21:31:53.093Z,7.57
2023-01-23T21:34:21.193Z,6.47
2023-01-23T21:36:49.352Z,6.10
2023-01-23T21:39:18.153Z,6.27
2023-01-23T21:41:46.253Z,6.43
2023-01-23T21:44:14.648Z,7.63
2023-01-23T21:46:42.907Z,7.03
2023-01-23T21:49:12.557Z,6.43
2023-01-23T21:51:40.734Z,8.53
2023-01-23T21:54:08.761Z,7.90
2023-01-23T21:56:36.859Z,7.53
2023-01-23T21:59:05.025Z,5.57
2023-01-23T22:01:39.882Z,6.70
2023-01-23T22:04:10.193Z,6.53
2023-01-23T22:06:42.024Z,7.20
2023-01-23T22:09:11.631Z,6.17
2023-01-23T22:11:40.065Z,6.60
2023-01-23T22:14:08.233Z,7.10
2023-01-23T22:16:48.029Z,6.00
2023-01-23T22:19:19.041Z,6.63
2023-01-23T22:21:50.085Z,5.97
2023-01-23T22:24:18.588Z,6.73
2023-01-23T22:26:46.674Z,6.90
2023-01-23T22:29:14.883Z,6.10
2023-01-23T22:31:43.743Z,6.53
2023-01-23T22:34:12.331Z,6.73
2023-01-23T22:36:43.110Z,6.77
2023-01-23T22:39:16.192Z,5.87
2023-01-23T22:41:45.508Z,6.37
2023-01-23T22:44:14.413Z,5.37
2023-01-23T22:46:42.875Z,5.63
2023-01-23T22:49:11.397Z,5.33
2023-01-23T22:51:39.414Z,6.50
2023-01-23T22:54:07.409Z,5.80
2023-01-23T22:56:36.984Z,6.27
2023-01-23T22:59:04.932Z,6.43
2023-01-23T23:01:33.438Z,6.03
2023-01-23T23:04:01.719Z,7.00
2023-01-23T23:06:29.844Z,6.17
2023-01-23T23:08:58.018Z,5.70
2023-01-23T23:11:28.380Z,6.30
2023-01-23T23:13:59.020Z,6.47
2023-01-23T23:16:28.665Z,6.00
2023-01-23T23:18:59.001Z,6.60
2023-01-23T23:21:36.057Z,5.53
2023-01-23T23:24:06.264Z,5.40
2023-01-23T23:26:34.522Z,6.27
2023-01-23T23:29:05.321Z,6.30
2023-01-23T23:31:33.519Z,5.77
2023-01-23T23:34:01.806Z,5.90
2023-01-23T23:36:29.801Z,5.27
2023-01-23T23:38:57.969Z,6.23
2023-01-23T23:41:31.648Z,5.73
2023-01-23T23:44:00.169Z,5.70
2023-01-23T23:46:29.651Z,5.47
2023-01-23T23:48:57.679Z,5.30
2023-01-23T23:51:26.644Z,6.33
2023-01-23T23:53:55.603Z,5.80
2023-01-23T23:56:25.815Z,5.67
2023-01-23T23:58:54.390Z,5.70
